createdAt,value
2023-04-07T00:01:08.237Z,4.30
2023-04-07T00:03:38.666Z,4.90
2023-04-07T00:06:07.253Z,5.23
2023-04-07T00:08:35.370Z,3.40
2023-04-07T00:11:03.576Z,4.17
2023-04-07T00:13:31.854Z,4.20
2023-04-07T00:15:59.998Z,5.07
2023-04-07T00:18:29.584Z,4.30
2023-04-07T00:20:57.737Z,4.70
2023-04-07T00:23:25.898Z,5.50
2023-04-07T00:25:54.108Z,3.93
2023-04-07T00:28:22.161Z,4.43
2023-04-07T00:30:50.129Z,4.93
2023-04-07T00:33:18.424Z,4.17
2023-04-07T00:35:48.097Z,4.27
2023-04-07T00:38:16.402Z,4.03
2023-04-07T00:40:44.440Z,4.17
2023-04-07T00:43:12.664Z,4.97
2023-04-07T00:45:41.211Z,4.60
2023-04-07T00:48:09.444Z,3.77
2023-04-07T00:50:37.629Z,4.17
2023-04-07T00:53:08.300Z,3.97
2023-04-07T00:55:36.566Z,4.53
2023-04-07T00:58:05.824Z,4.03
2023-04-07T01:00:37.228Z,4.07
2023-04-07T01:03:12.031Z,4.23
2023-04-07T01:05:47.537Z,4.37
2023-04-07T01:08:22.380Z,5.03
2023-04-07T01:10:54.340Z,3.53
2023-04-07T01:13:26.790Z,3.60
2023-04-07T01:15:57.489Z,3.23
2023-04-07T01:18:30.519Z,5.07
2023-04-07T01:21:04.372Z,4.10
2023-04-07T01:24:02.480Z,4.17
2023-04-07T01:26:31.952Z,4.13
2023-04-07T01:29:15.616Z,4.00
2023-04-07T01:31:47.028Z,4.67
2023-04-07T01:34:16.723Z,4.00
2023-04-07T01:36:46.807Z,3.90
2023-04-07T01:39:15.682Z,4.47
2023-04-07T01:41:44.396Z,3.60
2023-04-07T01:44:13.018Z,4.27
2023-04-07T01:46:41.393Z,4.43
2023-04-07T01:49:13.761Z,3.67
2023-04-07T01:51:47.757Z,4.90
2023-04-07T01:54:15.849Z,3.23
2023-04-07T01:56:43.915Z,3.30
2023-04-07T01:59:11.916Z,4.70
2023-04-07T02:01:40.167Z,3.83
2023-04-07T02:04:17.840Z,4.27
2023-04-07T02:06:52.643Z,3.90
2023-04-07T02:09:22.716Z,3.73
2023-04-07T02:11:52.838Z,3.43
2023-04-07T02:14:24.330Z,3.80
2023-04-07T02:16:53.998Z,4.87
2023-04-07T02:19:24.854Z,3.70
2023-04-07T02:21:53.506Z,4.23
2023-04-07T02:24:22.706Z,3.73
2023-04-07T02:26:50.634Z,3.13
2023-04-07T02:29:18.492Z,4.20
2023-04-07T02:31:46.397Z,4.33
2023-04-07T02:34:14.255Z,4.60
2023-04-07T02:36:43.553Z,3.90
2023-04-07T02:39:11.747Z,3.47
2023-04-07T02:41:39.579Z,3.93
2023-04-07T02:44:07.462Z,3.10
2023-04-07T02:46:35.432Z,3.90
2023-04-07T02:49:03.263Z,3.47
2023-04-07T02:51:31.308Z,3.03
2023-04-07T02:54:00.457Z,3.73
2023-04-07T02:56:28.545Z,4.67
2023-04-07T02:58:56.345Z,3.17
2023-04-07T03:01:24.272Z,4.13
2023-04-07T03:03:52.454Z,3.30
2023-04-07T03:06:20.877Z,4.57
2023-04-07T03:08:48.771Z,4.53
2023-04-07T03:11:18.008Z,3.63
2023-04-07T03:13:45.823Z,3.67
2023-04-07T03:16:13.745Z,3.40
2023-04-07T03:18:41.557Z,4.30
2023-04-07T03:21:09.471Z,3.50
2023-04-07T03:23:37.293Z,3.70
2023-04-07T03:26:05.293Z,3.33
2023-04-07T03:28:34.455Z,4.17
2023-04-07T03:31:02.609Z,4.17
2023-04-07T03:33:30.596Z,4.80
2023-04-07T03:35:58.421Z,3.50
2023-04-07T03:38:27.096Z,4.80
2023-04-07T03:40:55.063Z,3.63
2023-04-07T03:43:23.110Z,3.83
2023-04-07T03:45:54.273Z,3.03
2023-04-07T03:48:22.225Z,3.77
2023-04-07T03:50:50.222Z,3.77
2023-04-07T03:53:19.451Z,3.77
2023-04-07T03:55:47.508Z,3.60
2023-04-07T03:58:15.513Z,3.63
2023-04-07T04:00:43.348Z,3.53
2023-04-07T04:03:12.739Z,4.10
2023-04-07T04:05:40.829Z,4.03
2023-04-07T04:08:09.034Z,3.57
2023-04-07T04:10:36.860Z,3.53
2023-04-07T04:13:06.770Z,3.20
2023-04-07T04:15:34.694Z,4.00
2023-04-07T04:18:02.875Z,3.03
2023-04-07T04:20:32.049Z,4.47
2023-04-07T04:22:59.842Z,4.97
2023-04-07T04:25:27.690Z,3.47
2023-04-07T04:27:55.945Z,3.53
2023-04-07T04:30:23.846Z,4.23
2023-04-07T04:32:51.727Z,3.13
2023-04-07T04:35:19.604Z,3.80
2023-04-07T04:37:49.066Z,3.70
2023-04-07T04:40:17.187Z,3.83
2023-04-07T04:42:45.142Z,3.80
2023-04-07T04:45:13.185Z,3.43
2023-04-07T04:47:41.468Z,3.47
2023-04-07T04:50:10.118Z,3.33
2023-04-07T04:52:39.157Z,4.07
2023-04-07T04:55:09.705Z,4.47
2023-04-07T04:57:38.609Z,3.60
2023-04-07T05:00:08.144Z,3.60
2023-04-07T05:02:36.191Z,3.77
2023-04-07T05:05:05.140Z,4.07
2023-04-07T05:07:33.024Z,3.53
2023-04-07T05:10:01.378Z,4.10
2023-04-07T05:12:30.497Z,3.90
2023-04-07T05:14:58.304Z,4.00
2023-04-07T05:17:26.211Z,3.53
2023-04-07T05:19:54.066Z,3.37
2023-04-07T05:22:22.033Z,4.77
2023-04-07T05:24:49.846Z,4.47
2023-04-07T05:27:17.806Z,5.17
2023-04-07T05:29:46.922Z,4.47
2023-04-07T05:32:14.719Z,4.87
2023-04-07T05:34:42.568Z,3.57
2023-04-07T05:37:10.407Z,4.27
2023-04-07T05:39:38.176Z,4.33
2023-04-07T05:42:06.266Z,4.50
2023-04-07T05:44:34.186Z,4.33
2023-04-07T05:47:05.839Z,4.93
2023-04-07T05:49:33.771Z,4.67
2023-04-07T05:52:03.422Z,4.37
2023-04-07T05:54:31.686Z,4.47
2023-04-07T05:56:59.789Z,4.47
2023-04-07T05:59:27.676Z,4.77
2023-04-07T06:01:55.588Z,4.00
2023-04-07T06:04:24.834Z,5.83
2023-04-07T06:06:55.240Z,3.83
2023-04-07T06:09:23.556Z,3.90
2023-04-07T06:11:51.616Z,4.33
2023-04-07T06:14:19.772Z,4.93
2023-04-07T06:16:47.564Z,3.60
2023-04-07T06:19:15.390Z,4.87
2023-04-07T06:21:44.607Z,4.43
2023-04-07T06:24:12.382Z,3.93
2023-04-07T06:26:41.228Z,3.90
2023-04-07T06:29:09.089Z,3.93
2023-04-07T06:31:37.472Z,3.80
2023-04-07T06:34:05.397Z,3.67
2023-04-07T06:36:34.589Z,4.70
2023-04-07T06:39:04.011Z,4.40
2023-04-07T06:41:32.597Z,3.63
2023-04-07T06:44:00.762Z,5.00
2023-04-07T06:46:28.838Z,3.57
2023-04-07T06:48:57.219Z,4.47
2023-04-07T06:51:26.381Z,3.77
2023-04-07T06:53:54.432Z,3.70
2023-04-07T06:56:24.587Z,3.83
2023-04-07T06:58:52.798Z,3.93
2023-04-07T07:01:20.897Z,3.77
2023-04-07T07:03:49.320Z,3.53
2023-04-07T07:06:17.622Z,5.23
2023-04-07T07:08:48.666Z,4.43
2023-04-07T07:11:16.768Z,4.67
2023-04-07T07:13:46.725Z,4.13
2023-04-07T07:16:15.069Z,4.27
2023-04-07T07:18:43.210Z,3.90
2023-04-07T07:21:11.547Z,4.30
2023-04-07T07:23:39.727Z,3.90
2023-04-07T07:26:07.797Z,3.50
2023-04-07T07:28:35.912Z,3.90
2023-04-07T07:31:13.241Z,4.77
2023-04-07T07:33:41.781Z,4.87
2023-04-07T07:36:10.320Z,4.17
2023-04-07T07:38:38.584Z,4.00
2023-04-07T07:41:07.985Z,4.50
2023-04-07T07:43:37.184Z,4.10
2023-04-07T07:46:05.490Z,3.67
2023-04-07T07:48:34.969Z,3.80
2023-04-07T07:51:03.179Z,3.40
2023-04-07T07:53:34.356Z,3.33
2023-04-07T07:56:02.424Z,4.03
2023-04-07T07:58:34.119Z,3.80
2023-04-07T08:01:35.591Z,3.50
2023-04-07T08:04:05.146Z,4.07
2023-04-07T08:06:33.580Z,4.13
2023-04-07T08:09:01.578Z,3.97
2023-04-07T08:11:29.443Z,3.60
2023-04-07T08:13:57.393Z,3.40
2023-04-07T08:16:27.053Z,3.60
2023-04-07T08:18:55.078Z,3.53
2023-04-07T08:21:24.528Z,2.93
2023-04-07T08:23:52.610Z,3.27
2023-04-07T08:26:21.236Z,3.57
2023-04-07T08:28:50.254Z,3.37
2023-04-07T08:31:18.350Z,3.23
2023-04-07T08:33:46.922Z,3.70
2023-04-07T08:36:15.245Z,3.70
2023-04-07T08:38:44.869Z,2.70
2023-04-07T08:41:14.425Z,2.87
2023-04-07T08:43:47.148Z,3.40
2023-04-07T08:46:17.239Z,4.00
2023-04-07T08:48:45.880Z,4.00
2023-04-07T08:51:16.318Z,3.70
2023-04-07T08:53:50.701Z,3.60
2023-04-07T08:56:18.883Z,3.70
2023-04-07T08:58:49.704Z,3.50
2023-04-07T09:01:18.063Z,5.97
2023-04-07T09:03:47.106Z,3.83
2023-04-07T09:06:16.143Z,4.10
2023-04-07T09:08:45.587Z,2.67
2023-04-07T09:11:13.551Z,2.87
2023-04-07T09:13:41.601Z,3.63
2023-04-07T09:16:09.575Z,2.70
2023-04-07T09:18:37.688Z,3.00
2023-04-07T09:21:07.854Z,3.30
2023-04-07T09:23:37.124Z,2.80
2023-04-07T09:29:01.465Z,3.17
2023-04-07T09:31:46.391Z,3.70
2023-04-07T09:34:26.201Z,3.10
2023-04-07T09:36:54.244Z,3.57
2023-04-07T09:39:22.239Z,3.17
2023-04-07T09:41:50.302Z,3.60
2023-04-07T09:44:20.226Z,3.87
2023-04-07T09:46:51.863Z,2.80
2023-04-07T09:49:20.417Z,3.43
2023-04-07T09:51:55.621Z,2.97
2023-04-07T09:54:37.560Z,2.23
2023-04-07T09:57:07.545Z,2.37
2023-04-07T09:59:38.008Z,2.27
2023-04-07T10:02:07.052Z,2.30
2023-04-07T10:04:35.399Z,2.47
2023-04-07T10:07:04.466Z,1.93
2023-04-07T10:09:32.873Z,2.37
2023-04-07T10:12:01.186Z,1.80
2023-04-07T10:14:33.411Z,1.80
2023-04-07T10:17:04.412Z,2.30
2023-04-07T10:19:34.329Z,2.20
2023-04-07T10:22:04.245Z,2.60
2023-04-07T10:24:47.061Z,2.30
2023-04-07T10:27:21.096Z,2.00
2023-04-07T10:29:52.715Z,3.67
2023-04-07T10:32:22.154Z,2.20
2023-04-07T10:35:01.227Z,2.13
2023-04-07T10:37:29.206Z,2.27
2023-04-07T10:40:29.292Z,2.33
2023-04-07T10:42:58.118Z,2.17
2023-04-07T10:45:54.489Z,1.70
2023-04-07T10:48:24.052Z,2.50
2023-04-07T10:51:15.838Z,2.23
2023-04-07T10:54:23.615Z,2.20
2023-04-07T10:57:12.038Z,1.87
2023-04-07T11:00:04.503Z,2.00
2023-04-07T11:02:36.528Z,2.10
2023-04-07T11:05:07.451Z,2.07
2023-04-07T11:07:46.736Z,2.37
2023-04-07T11:10:16.500Z,2.33
2023-04-07T11:12:44.675Z,1.83
2023-04-07T11:15:20.531Z,2.10
2023-04-07T11:17:48.944Z,2.07
2023-04-07T11:20:18.636Z,1.87
2023-04-07T11:23:00.699Z,2.17
2023-04-07T11:25:30.398Z,2.70
2023-04-07T11:27:58.872Z,1.70
2023-04-07T11:30:27.140Z,1.70
2023-04-07T11:32:55.091Z,1.77
2023-04-07T11:35:25.036Z,2.03
2023-04-07T11:38:02.666Z,2.10
2023-04-07T11:40:37.437Z,2.03
2023-04-07T11:43:20.097Z,1.70
2023-04-07T11:45:48.374Z,1.90
2023-04-07T11:48:30.532Z,1.90
2023-04-07T11:51:00.473Z,1.60
2023-04-07T11:53:29.896Z,1.33
2023-04-07T11:56:06.249Z,1.70
2023-04-07T11:58:34.269Z,1.80
2023-04-07T12:01:06.976Z,1.23
2023-04-07T12:03:36.967Z,1.60
2023-04-07T12:06:07.181Z,1.37
2023-04-07T12:08:42.206Z,1.13
2023-04-07T12:11:10.651Z,1.30
2023-04-07T12:13:39.026Z,1.23
2023-04-07T12:16:07.595Z,1.77
2023-04-07T12:18:36.533Z,1.50
2023-04-07T12:21:06.353Z,1.50
2023-04-07T12:23:34.468Z,1.50
2023-04-07T12:26:02.876Z,1.17
2023-04-07T12:28:31.164Z,1.00
2023-04-07T12:31:01.307Z,1.17
2023-04-07T12:33:29.312Z,1.07
2023-04-07T12:35:59.511Z,1.07
2023-04-07T12:38:29.203Z,1.13
2023-04-07T12:41:03.412Z,1.47
2023-04-07T12:43:31.569Z,1.10
2023-04-07T12:45:59.761Z,1.50
2023-04-07T12:48:30.453Z,1.67
2023-04-07T12:51:02.366Z,2.70
2023-04-07T12:53:31.720Z,1.80
2023-04-07T12:56:00.122Z,1.43
2023-04-07T12:58:28.096Z,1.60
2023-04-07T13:00:56.852Z,1.60
2023-04-07T13:03:25.221Z,1.63
2023-04-07T13:05:55.028Z,1.53
2023-04-07T13:08:23.082Z,1.83
2023-04-07T13:10:52.343Z,2.00
2023-04-07T13:13:20.339Z,1.60
2023-04-07T13:15:48.384Z,2.87
2023-04-07T13:18:16.533Z,2.10
2023-04-07T13:20:54.381Z,2.53
2023-04-07T13:23:49.427Z,2.93
2023-04-07T13:26:18.764Z,2.30
2023-04-07T13:28:47.998Z,2.43
2023-04-07T13:31:16.896Z,2.30
2023-04-07T13:33:46.630Z,2.27
2023-04-07T13:36:14.781Z,2.90
2023-04-07T13:38:43.290Z,3.00
2023-04-07T13:41:11.269Z,3.47
2023-04-07T13:43:40.902Z,3.07
2023-04-07T13:46:20.667Z,2.13
2023-04-07T13:48:52.812Z,2.70
2023-04-07T13:51:21.401Z,2.10
2023-04-07T13:53:49.800Z,1.60
2023-04-07T13:56:18.061Z,2.00
2023-04-07T13:58:48.116Z,2.17
2023-04-07T14:01:16.097Z,1.73
2023-04-07T14:03:44.101Z,2.00
2023-04-07T14:06:11.949Z,2.57
2023-04-07T14:08:39.866Z,2.13
2023-04-07T14:11:07.766Z,1.77
2023-04-07T14:13:36.605Z,1.70
2023-04-07T14:16:06.502Z,2.00
2023-04-07T14:18:34.314Z,1.60
2023-04-07T14:21:03.342Z,2.53
2023-04-07T14:23:37.371Z,4.20
2023-04-07T14:26:06.061Z,2.63
2023-04-07T14:28:34.759Z,2.37
2023-04-07T14:31:03.163Z,1.63
2023-04-07T14:33:32.867Z,1.97
2023-04-07T14:36:00.991Z,1.70
2023-04-07T14:38:29.026Z,2.03
2023-04-07T14:41:09.073Z,1.90
2023-04-07T14:43:38.726Z,2.00
2023-04-07T14:46:07.045Z,2.00
2023-04-07T14:48:36.694Z,1.80
2023-04-07T14:51:09.695Z,1.80
2023-04-07T14:53:43.452Z,2.17
2023-04-07T14:56:11.508Z,2.10
2023-04-07T14:58:40.705Z,1.93
2023-04-07T15:01:09.120Z,3.63
2023-04-07T15:03:39.093Z,3.03
2023-04-07T15:06:11.211Z,3.27
2023-04-07T15:08:39.464Z,2.10
2023-04-07T15:11:08.707Z,2.27
2023-04-07T15:13:37.907Z,1.27
2023-04-07T15:16:13.598Z,1.43
2023-04-07T15:18:45.553Z,1.90
2023-04-07T15:21:14.536Z,1.70
2023-04-07T15:23:42.750Z,1.60
2023-04-07T15:26:11.233Z,2.13
2023-04-07T15:28:39.662Z,2.47
2023-04-07T15:31:09.052Z,2.47
2023-04-07T15:33:40.626Z,3.60
2023-04-07T15:36:10.136Z,3.47
2023-04-07T15:38:39.542Z,1.77
2023-04-07T15:41:07.707Z,2.87
2023-04-07T15:43:36.785Z,2.00
2023-04-07T15:46:08.956Z,1.80
2023-04-07T15:48:36.974Z,3.70
2023-04-07T15:51:05.241Z,2.77
2023-04-07T15:53:35.551Z,2.00
2023-04-07T15:56:03.592Z,2.30
2023-04-07T15:58:32.902Z,2.63
2023-04-07T16:01:01.671Z,1.80
2023-04-07T16:03:29.997Z,1.77
2023-04-07T16:05:57.980Z,2.33
2023-04-07T16:08:26.111Z,1.40
2023-04-07T16:10:55.535Z,1.90
2023-04-07T16:13:23.639Z,2.40
2023-04-07T16:15:51.596Z,1.97
2023-04-07T16:18:19.692Z,1.60
2023-04-07T16:20:47.695Z,1.53
2023-04-07T16:23:15.984Z,1.97
2023-04-07T16:25:43.979Z,1.77
2023-04-07T16:28:13.398Z,1.83
2023-04-07T16:30:41.703Z,1.47
2023-04-07T16:33:09.921Z,2.00
2023-04-07T16:35:39.010Z,1.80
2023-04-07T16:38:07.255Z,1.83
2023-04-07T16:40:35.453Z,2.00
2023-04-07T16:43:03.491Z,2.30
2023-04-07T16:45:32.985Z,2.20
2023-04-07T16:48:01.241Z,2.10
2023-04-07T16:50:29.443Z,2.00
2023-04-07T16:52:57.756Z,1.30
2023-04-07T16:55:25.967Z,1.80
2023-04-07T16:57:54.070Z,1.60
2023-04-07T17:00:22.278Z,1.87
2023-04-07T17:02:51.940Z,1.90
2023-04-07T17:05:20.163Z,1.57
2023-04-07T17:07:48.947Z,1.80
2023-04-07T17:10:17.156Z,1.10
2023-04-07T17:12:45.569Z,1.97
2023-04-07T17:15:13.554Z,2.00
2023-04-07T17:17:41.595Z,1.57
2023-04-07T17:20:12.581Z,1.40
2023-04-07T17:22:40.762Z,1.67
2023-04-07T17:25:09.997Z,1.47
2023-04-07T17:27:38.120Z,1.77
2023-04-07T17:30:07.811Z,2.20
2023-04-07T17:32:36.356Z,1.73
2023-04-07T17:35:04.432Z,1.40
2023-04-07T17:37:33.885Z,1.70
2023-04-07T17:40:02.216Z,1.60
2023-04-07T17:42:30.519Z,1.73
2023-04-07T17:44:58.815Z,1.63
2023-04-07T17:47:26.918Z,1.90
2023-04-07T17:49:54.929Z,1.87
2023-04-07T17:52:22.891Z,1.73
2023-04-07T17:54:52.275Z,1.90
2023-04-07T17:57:20.561Z,1.67
2023-04-07T17:59:48.788Z,2.20
2023-04-07T18:02:17.467Z,2.77
2023-04-07T18:04:45.786Z,1.53
2023-04-07T18:07:14.066Z,1.20
2023-04-07T18:09:43.071Z,1.53
2023-04-07T18:12:12.673Z,1.73
2023-04-07T18:14:40.803Z,2.10
2023-04-07T18:17:08.827Z,2.00
2023-04-07T18:19:37.612Z,1.97
2023-04-07T18:22:06.430Z,1.37
2023-04-07T18:24:34.495Z,1.30
2023-04-07T18:27:04.053Z,1.37
2023-04-07T18:29:33.485Z,1.50
2023-04-07T18:32:01.575Z,1.80
2023-04-07T18:34:30.302Z,1.80
2023-04-07T18:36:58.405Z,1.50
2023-04-07T18:39:28.129Z,2.03
2023-04-07T18:41:57.859Z,2.07
2023-04-07T18:44:26.063Z,2.00
2023-04-07T18:46:55.833Z,1.77
2023-04-07T18:49:24.533Z,1.90
2023-04-07T18:51:53.492Z,1.90
2023-04-07T18:54:22.118Z,2.20
2023-04-07T18:56:50.178Z,2.63
2023-04-07T18:59:18.192Z,2.33
2023-04-07T19:01:46.252Z,2.50
2023-04-07T19:04:16.479Z,2.37
2023-04-07T19:06:44.538Z,2.47
2023-04-07T19:09:14.550Z,2.57
2023-04-07T19:11:42.796Z,2.53
2023-04-07T19:14:11.056Z,2.00
2023-04-07T19:16:39.523Z,3.07
2023-04-07T19:19:07.799Z,2.37
2023-04-07T19:21:40.547Z,1.90
2023-04-07T19:24:08.655Z,2.13
2023-04-07T19:26:36.813Z,1.97
2023-04-07T19:29:05.103Z,2.30
2023-04-07T19:31:33.183Z,2.10
2023-04-07T19:34:01.455Z,2.03
2023-04-07T19:36:29.954Z,1.93
2023-04-07T19:39:04.422Z,2.67
2023-04-07T19:41:33.119Z,2.53
2023-04-07T19:44:01.216Z,2.37
2023-04-07T19:46:29.953Z,2.10
2023-04-07T19:48:58.007Z,2.33
2023-04-07T19:51:26.188Z,2.00
2023-04-07T19:53:54.200Z,2.03
2023-04-07T19:56:25.121Z,2.30
2023-04-07T19:58:53.159Z,1.60
2023-04-07T20:01:21.301Z,2.37
2023-04-07T20:03:49.431Z,2.37
2023-04-07T20:06:19.145Z,2.37
2023-04-07T20:08:48.301Z,1.83
2023-04-07T20:11:16.584Z,2.00
2023-04-07T20:13:48.373Z,1.87
2023-04-07T20:16:16.912Z,2.10
2023-04-07T20:18:44.808Z,1.77
2023-04-07T20:21:13.301Z,1.60
2023-04-07T20:23:41.548Z,2.37
2023-04-07T20:26:10.552Z,2.23
2023-04-07T20:28:38.379Z,2.03
2023-04-07T20:31:07.555Z,1.83
2023-04-07T20:33:35.673Z,1.93
2023-04-07T20:36:03.595Z,1.73
2023-04-07T20:38:31.767Z,2.03
2023-04-07T20:40:59.684Z,1.70
2023-04-07T20:43:28.062Z,2.20
2023-04-07T20:45:56.807Z,1.80
2023-04-07T20:48:26.766Z,2.43
2023-04-07T20:50:54.714Z,1.60
2023-04-07T20:53:23.833Z,2.03
2023-04-07T20:55:52.015Z,1.93
2023-04-07T20:58:20.243Z,2.13
2023-04-07T21:00:48.377Z,1.93
2023-04-07T21:03:16.490Z,1.93
2023-04-07T21:05:48.251Z,1.97
2023-04-07T21:08:16.321Z,2.47
2023-04-07T21:10:44.217Z,2.30
2023-04-07T21:13:12.098Z,2.30
2023-04-07T21:15:42.373Z,1.50
2023-04-07T21:18:10.666Z,2.43
2023-04-07T21:20:38.761Z,2.03
2023-04-07T21:23:08.740Z,2.00
2023-04-07T21:25:38.606Z,2.07
2023-04-07T21:28:07.326Z,2.27
2023-04-07T21:30:35.679Z,2.73
2023-04-07T21:33:04.312Z,2.00
2023-04-07T21:35:32.345Z,2.40
2023-04-07T21:38:00.476Z,2.73
2023-04-07T21:40:29.968Z,2.60
2023-04-07T21:42:57.953Z,2.10
2023-04-07T21:45:26.371Z,3.03
2023-04-07T21:47:54.482Z,2.13
2023-04-07T21:50:22.758Z,2.83
2023-04-07T21:52:51.642Z,2.97
2023-04-07T21:55:20.696Z,2.60
2023-04-07T21:57:50.765Z,2.73
2023-04-07T22:00:19.018Z,3.27
2023-04-07T22:02:47.339Z,4.07
2023-04-07T22:05:16.335Z,3.30
2023-04-07T22:07:45.575Z,3.30
2023-04-07T22:10:13.999Z,3.80
2023-04-07T22:12:41.992Z,2.73
2023-04-07T22:15:13.609Z,3.77
2023-04-07T22:17:41.762Z,3.70
2023-04-07T22:20:11.708Z,3.90
2023-04-07T22:22:40.043Z,4.07
2023-04-07T22:25:08.706Z,3.53
2023-04-07T22:27:36.778Z,3.90
2023-04-07T22:30:05.330Z,4.07
2023-04-07T22:32:34.624Z,3.83
2023-04-07T22:35:02.800Z,3.73
2023-04-07T22:37:30.965Z,3.37
2023-04-07T22:39:59.288Z,3.83
2023-04-07T22:42:27.212Z,2.87
2023-04-07T22:44:55.409Z,2.83
2023-04-07T22:47:23.456Z,3.10
2023-04-07T22:49:52.798Z,3.27
2023-04-07T22:52:20.916Z,3.53
2023-04-07T22:54:48.921Z,3.50
2023-04-07T22:57:16.983Z,2.60
2023-04-07T22:59:44.892Z,3.60
2023-04-07T23:02:12.932Z,3.63
2023-04-07T23:04:41.118Z,3.70
2023-04-07T23:07:10.538Z,3.47
2023-04-07T23:09:38.465Z,3.40
2023-04-07T23:12:06.560Z,3.20
2023-04-07T23:14:34.480Z,3.73
2023-04-07T23:17:02.989Z,3.33
2023-04-07T23:19:31.041Z,4.10
2023-04-07T23:21:58.936Z,3.53
2023-04-07T23:24:28.165Z,2.83
2023-04-07T23:26:56.968Z,3.10
2023-04-07T23:29:24.963Z,3.27
2023-04-07T23:31:53.485Z,3.63
2023-04-07T23:34:21.618Z,3.20
2023-04-07T23:36:49.836Z,3.73
2023-04-07T23:39:17.751Z,3.23
2023-04-07T23:41:47.082Z,3.03
2023-04-07T23:44:15.030Z,3.37
2023-04-07T23:46:42.870Z,3.70
2023-04-07T23:49:10.726Z,2.97
2023-04-07T23:51:38.620Z,2.30
2023-04-07T23:54:06.533Z,2.67
2023-04-07T23:56:34.799Z,3.23
2023-04-07T23:59:04.876Z,2.77
